sensor_id;sensor_type;location;lat;lon;timestamp;P1;durP1;ratioP1;P2;durP2;ratioP2
30697;SDS011;17448;47.200;10.902;2023-06-14T00:02:00;9.32;;;4.70;;
30697;SDS011;17448;47.200;10.902;2023-06-14T00:04:26;7.63;;;4.13;;
30697;SDS011;17448;47.200;10.902;2023-06-14T00:06:52;7.72;;;4.65;;
30697;SDS011;17448;47.200;10.902;2023-06-14T00:09:22;5.72;;;4.28;;
30697;SDS011;17448;47.200;10.902;2023-06-14T00:11:48;8.43;;;4.57;;
30697;SDS011;17448;47.200;10.902;2023-06-14T00:14:14;6.18;;;4.15;;
30697;SDS011;17448;47.200;10.902;2023-06-14T00:16:41;6.63;;;4.68;;
30697;SDS011;17448;47.200;10.902;2023-06-14T00:19:10;7.95;;;4.00;;
30697;SDS011;17448;47.200;10.902;2023-06-14T00:21:37;7.28;;;4.65;;
30697;SDS011;17448;47.200;10.902;2023-06-14T00:24:03;6.88;;;4.60;;
30697;SDS011;17448;47.200;10.902;2023-06-14T00:26:30;6.88;;;4.15;;
30697;SDS011;17448;47.200;10.902;2023-06-14T00:28:56;7.13;;;4.68;;
30697;SDS011;17448;47.200;10.902;2023-06-14T00:31:24;8.45;;;4.47;;
30697;SDS011;17448;47.200;10.902;2023-06-14T00:33:53;8.80;;;4.40;;
30697;SDS011;17448;47.200;10.902;2023-06-14T00:36:19;7.05;;;4.18;;
30697;SDS011;17448;47.200;10.902;2023-06-14T00:38:45;7.72;;;4.57;;
30697;SDS011;17448;47.200;10.902;2023-06-14T00:41:12;6.05;;;4.38;;
30697;SDS011;17448;47.200;10.902;2023-06-14T00:43:41;7.85;;;4.72;;
30697;SDS011;17448;47.200;10.902;2023-06-14T00:46:07;8.23;;;4.60;;
30697;SDS011;17448;47.200;10.902;2023-06-14T00:48:35;5.70;;;4.05;;
30697;SDS011;17448;47.200;10.902;2023-06-14T00:51:02;7.60;;;4.60;;
30697;SDS011;17448;47.200;10.902;2023-06-14T00:53:29;6.30;;;4.30;;
30697;SDS011;17448;47.200;10.902;2023-06-14T00:55:56;7.45;;;4.20;;
30697;SDS011;17448;47.200;10.902;2023-06-14T00:58:22;11.10;;;4.68;;
30697;SDS011;17448;47.200;10.902;2023-06-14T01:00:49;7.70;;;4.43;;
30697;SDS011;17448;47.200;10.902;2023-06-14T01:03:16;7.82;;;4.35;;
30697;SDS011;17448;47.200;10.902;2023-06-14T01:05:47;7.00;;;4.35;;
30697;SDS011;17448;47.200;10.902;2023-06-14T01:08:36;9.35;;;4.72;;
30697;SDS011;17448;47.200;10.902;2023-06-14T01:11:07;8.13;;;5.00;;
30697;SDS011;17448;47.200;10.902;2023-06-14T01:13:36;8.65;;;4.47;;
30697;SDS011;17448;47.200;10.902;2023-06-14T01:16:03;8.35;;;4.60;;
30697;SDS011;17448;47.200;10.902;2023-06-14T01:18:31;8.77;;;4.88;;
30697;SDS011;17448;47.200;10.902;2023-06-14T01:20:57;8.10;;;4.80;;
30697;SDS011;17448;47.200;10.902;2023-06-14T01:23:24;9.40;;;4.72;;
30697;SDS011;17448;47.200;10.902;2023-06-14T01:25:58;10.70;;;4.70;;
30697;SDS011;17448;47.200;10.902;2023-06-14T01:28:25;7.78;;;4.53;;
30697;SDS011;17448;47.200;10.902;2023-06-14T01:30:58;7.78;;;4.70;;
30697;SDS011;17448;47.200;10.902;2023-06-14T01:33:28;6.82;;;4.60;;
30697;SDS011;17448;47.200;10.902;2023-06-14T01:35:57;10.05;;;4.88;;
30697;SDS011;17448;47.200;10.902;2023-06-14T01:38:24;6.47;;;4.95;;
30697;SDS011;17448;47.200;10.902;2023-06-14T01:40:51;8.30;;;4.88;;
30697;SDS011;17448;47.200;10.902;2023-06-14T01:43:18;8.07;;;4.47;;
30697;SDS011;17448;47.200;10.902;2023-06-14T01:45:46;7.97;;;4.80;;
30697;SDS011;17448;47.200;10.902;2023-06-14T01:48:13;8.18;;;4.78;;
30697;SDS011;17448;47.200;10.902;2023-06-14T01:50:40;8.15;;;4.40;;
30697;SDS011;17448;47.200;10.902;2023-06-14T01:53:07;9.88;;;4.60;;
30697;SDS011;17448;47.200;10.902;2023-06-14T01:55:36;9.10;;;4.82;;
30697;SDS011;17448;47.200;10.902;2023-06-14T02:00:35;8.43;;;5.10;;
30697;SDS011;17448;47.200;10.902;2023-06-14T02:03:01;7.72;;;4.32;;
30697;SDS011;17448;47.200;10.902;2023-06-14T02:05:29;11.00;;;4.50;;
30697;SDS011;17448;47.200;10.902;2023-06-14T02:07:56;7.60;;;4.65;;
30697;SDS011;17448;47.200;10.902;2023-06-14T02:10:22;7.03;;;4.45;;
30697;SDS011;17448;47.200;10.902;2023-06-14T02:12:49;7.75;;;4.65;;
30697;SDS011;17448;47.200;10.902;2023-06-14T02:15:15;9.10;;;4.63;;
30697;SDS011;17448;47.200;10.902;2023-06-14T02:17:47;6.28;;;4.43;;
30697;SDS011;17448;47.200;10.902;2023-06-14T02:20:17;7.10;;;4.50;;
30697;SDS011;17448;47.200;10.902;2023-06-14T02:22:45;7.45;;;4.72;;
30697;SDS011;17448;47.200;10.902;2023-06-14T02:25:11;8.25;;;4.45;;
30697;SDS011;17448;47.200;10.902;2023-06-14T02:27:39;7.55;;;4.75;;
30697;SDS011;17448;47.200;10.902;2023-06-14T02:30:06;7.18;;;4.68;;
30697;SDS011;17448;47.200;10.902;2023-06-14T02:32:35;7.50;;;4.68;;
30697;SDS011;17448;47.200;10.902;2023-06-14T02:35:02;11.05;;;5.20;;
30697;SDS011;17448;47.200;10.902;2023-06-14T02:37:28;9.65;;;4.90;;
30697;SDS011;17448;47.200;10.902;2023-06-14T02:39:55;6.57;;;4.85;;
30697;SDS011;17448;47.200;10.902;2023-06-14T02:42:22;8.20;;;4.90;;
30697;SDS011;17448;47.200;10.902;2023-06-14T02:44:49;7.40;;;4.55;;
30697;SDS011;17448;47.200;10.902;2023-06-14T02:47:19;7.85;;;4.10;;
30697;SDS011;17448;47.200;10.902;2023-06-14T02:49:45;6.78;;;4.70;;
30697;SDS011;17448;47.200;10.902;2023-06-14T02:52:13;10.52;;;4.53;;
30697;SDS011;17448;47.200;10.902;2023-06-14T02:54:40;8.50;;;4.82;;
30697;SDS011;17448;47.200;10.902;2023-06-14T02:57:08;8.68;;;4.93;;
30697;SDS011;17448;47.200;10.902;2023-06-14T02:59:36;6.32;;;4.68;;
30697;SDS011;17448;47.200;10.902;2023-06-14T03:02:03;9.43;;;4.93;;
30697;SDS011;17448;47.200;10.902;2023-06-14T03:04:32;8.90;;;4.63;;
30697;SDS011;17448;47.200;10.902;2023-06-14T03:07:06;6.40;;;4.22;;
30697;SDS011;17448;47.200;10.902;2023-06-14T03:09:36;6.88;;;4.80;;
30697;SDS011;17448;47.200;10.902;2023-06-14T03:12:03;6.65;;;4.32;;
30697;SDS011;17448;47.200;10.902;2023-06-14T03:14:30;8.90;;;5.40;;
30697;SDS011;17448;47.200;10.902;2023-06-14T03:16:57;13.80;;;5.10;;
30697;SDS011;17448;47.200;10.902;2023-06-14T03:19:24;11.63;;;5.13;;
30697;SDS011;17448;47.200;10.902;2023-06-14T03:21:53;8.23;;;4.43;;
30697;SDS011;17448;47.200;10.902;2023-06-14T03:24:24;10.20;;;4.85;;
30697;SDS011;17448;47.200;10.902;2023-06-14T03:26:53;7.63;;;4.65;;
30697;SDS011;17448;47.200;10.902;2023-06-14T03:29:20;11.75;;;5.68;;
30697;SDS011;17448;47.200;10.902;2023-06-14T03:31:57;6.90;;;4.45;;
30697;SDS011;17448;47.200;10.902;2023-06-14T03:34:25;8.18;;;5.03;;
30697;SDS011;17448;47.200;10.902;2023-06-14T03:36:51;9.02;;;5.07;;
30697;SDS011;17448;47.200;10.902;2023-06-14T03:39:18;15.55;;;5.47;;
30697;SDS011;17448;47.200;10.902;2023-06-14T03:41:45;10.85;;;4.93;;
30697;SDS011;17448;47.200;10.902;2023-06-14T03:44:13;8.25;;;5.10;;
30697;SDS011;17448;47.200;10.902;2023-06-14T03:46:40;8.32;;;5.13;;
30697;SDS011;17448;47.200;10.902;2023-06-14T03:49:06;10.43;;;4.80;;
30697;SDS011;17448;47.200;10.902;2023-06-14T03:51:32;8.85;;;5.25;;
30697;SDS011;17448;47.200;10.902;2023-06-14T03:54:00;8.32;;;4.85;;
30697;SDS011;17448;47.200;10.902;2023-06-14T03:56:27;9.50;;;4.53;;
30697;SDS011;17448;47.200;10.902;2023-06-14T03:58:53;9.50;;;5.47;;
30697;SDS011;17448;47.200;10.902;2023-06-14T04:01:23;7.38;;;4.50;;
30697;SDS011;17448;47.200;10.902;2023-06-14T04:03:52;7.53;;;4.63;;
30697;SDS011;17448;47.200;10.902;2023-06-14T04:06:19;8.10;;;4.80;;
30697;SDS011;17448;47.200;10.902;2023-06-14T04:08:45;13.20;;;5.63;;
30697;SDS011;17448;47.200;10.902;2023-06-14T04:11:14;9.75;;;4.97;;
30697;SDS011;17448;47.200;10.902;2023-06-14T04:13:44;7.53;;;5.20;;
30697;SDS011;17448;47.200;10.902;2023-06-14T04:16:12;11.27;;;5.65;;
30697;SDS011;17448;47.200;10.902;2023-06-14T04:18:38;7.85;;;5.07;;
30697;SDS011;17448;47.200;10.902;2023-06-14T04:21:04;11.30;;;5.57;;
30697;SDS011;17448;47.200;10.902;2023-06-14T04:23:31;8.38;;;5.30;;
30697;SDS011;17448;47.200;10.902;2023-06-14T04:25:58;7.75;;;4.82;;
30697;SDS011;17448;47.200;10.902;2023-06-14T04:28:27;8.52;;;5.15;;
30697;SDS011;17448;47.200;10.902;2023-06-14T04:30:57;7.13;;;4.68;;
30697;SDS011;17448;47.200;10.902;2023-06-14T04:33:28;8.35;;;5.47;;
30697;SDS011;17448;47.200;10.902;2023-06-14T04:35:54;6.55;;;4.93;;
30697;SDS011;17448;47.200;10.902;2023-06-14T04:38:21;9.52;;;5.50;;
30697;SDS011;17448;47.200;10.902;2023-06-14T04:40:52;8.07;;;5.05;;
30697;SDS011;17448;47.200;10.902;2023-06-14T04:43:19;9.80;;;5.90;;
30697;SDS011;17448;47.200;10.902;2023-06-14T04:45:55;8.85;;;4.97;;
30697;SDS011;17448;47.200;10.902;2023-06-14T04:48:22;12.30;;;5.63;;
30697;SDS011;17448;47.200;10.902;2023-06-14T04:50:48;11.00;;;5.10;;
30697;SDS011;17448;47.200;10.902;2023-06-14T04:53:18;7.57;;;4.93;;
30697;SDS011;17448;47.200;10.902;2023-06-14T04:55:49;6.43;;;5.10;;
30697;SDS011;17448;47.200;10.902;2023-06-14T04:58:17;8.35;;;4.97;;
30697;SDS011;17448;47.200;10.902;2023-06-14T05:00:43;8.52;;;5.70;;
30697;SDS011;17448;47.200;10.902;2023-06-14T05:03:15;8.93;;;5.40;;
30697;SDS011;17448;47.200;10.902;2023-06-14T05:05:43;12.35;;;5.43;;
30697;SDS011;17448;47.200;10.902;2023-06-14T05:08:11;11.95;;;5.88;;
30697;SDS011;17448;47.200;10.902;2023-06-14T05:10:38;7.80;;;5.68;;
30697;SDS011;17448;47.200;10.902;2023-06-14T05:13:04;8.52;;;5.35;;
30697;SDS011;17448;47.200;10.902;2023-06-14T05:15:30;7.60;;;5.53;;
30697;SDS011;17448;47.200;10.902;2023-06-14T05:17:57;10.23;;;5.88;;
30697;SDS011;17448;47.200;10.902;2023-06-14T05:20:24;14.43;;;6.18;;
30697;SDS011;17448;47.200;10.902;2023-06-14T05:22:54;10.32;;;5.82;;
30697;SDS011;17448;47.200;10.902;2023-06-14T05:25:22;10.25;;;5.85;;
30697;SDS011;17448;47.200;10.902;2023-06-14T05:27:48;12.25;;;5.55;;
30697;SDS011;17448;47.200;10.902;2023-06-14T05:30:15;6.53;;;4.90;;
30697;SDS011;17448;47.200;10.902;2023-06-14T05:32:44;7.10;;;5.22;;
30697;SDS011;17448;47.200;10.902;2023-06-14T05:35:10;10.15;;;5.18;;
30697;SDS011;17448;47.200;10.902;2023-06-14T05:37:37;7.72;;;5.30;;
30697;SDS011;17448;47.200;10.902;2023-06-14T05:40:04;7.75;;;5.57;;
30697;SDS011;17448;47.200;10.902;2023-06-14T05:42:34;7.85;;;5.47;;
30697;SDS011;17448;47.200;10.902;2023-06-14T05:45:00;14.32;;;5.60;;
30697;SDS011;17448;47.200;10.902;2023-06-14T05:47:26;9.63;;;5.80;;
30697;SDS011;17448;47.200;10.902;2023-06-14T05:49:53;12.23;;;6.40;;
30697;SDS011;17448;47.200;10.902;2023-06-14T05:52:20;9.43;;;5.50;;
30697;SDS011;17448;47.200;10.902;2023-06-14T05:54:46;7.72;;;5.40;;
30697;SDS011;17448;47.200;10.902;2023-06-14T05:57:13;9.82;;;5.57;;
30697;SDS011;17448;47.200;10.902;2023-06-14T05:59:39;9.15;;;5.30;;
30697;SDS011;17448;47.200;10.902;2023-06-14T06:02:05;12.25;;;6.43;;
30697;SDS011;17448;47.200;10.902;2023-06-14T06:04:31;10.15;;;5.88;;
30697;SDS011;17448;47.200;10.902;2023-06-14T06:06:58;11.15;;;5.70;;
30697;SDS011;17448;47.200;10.902;2023-06-14T06:09:24;11.48;;;6.13;;
30697;SDS011;17448;47.200;10.902;2023-06-14T06:11:50;9.07;;;5.70;;
30697;SDS011;17448;47.200;10.902;2023-06-14T06:14:16;9.10;;;5.85;;
30697;SDS011;17448;47.200;10.902;2023-06-14T06:16:42;7.82;;;5.95;;
30697;SDS011;17448;47.200;10.902;2023-06-14T06:19:09;14.52;;;6.80;;
30697;SDS011;17448;47.200;10.902;2023-06-14T06:21:35;8.02;;;5.53;;
30697;SDS011;17448;47.200;10.902;2023-06-14T06:24:01;10.65;;;6.43;;
30697;SDS011;17448;47.200;10.902;2023-06-14T06:26:30;9.88;;;6.22;;
30697;SDS011;17448;47.200;10.902;2023-06-14T06:28:57;9.77;;;6.55;;
30697;SDS011;17448;47.200;10.902;2023-06-14T06:31:24;9.40;;;5.93;;
30697;SDS011;17448;47.200;10.902;2023-06-14T06:33:53;9.07;;;7.00;;
30697;SDS011;17448;47.200;10.902;2023-06-14T06:36:20;9.93;;;6.43;;
30697;SDS011;17448;47.200;10.902;2023-06-14T06:38:47;10.35;;;6.13;;
30697;SDS011;17448;47.200;10.902;2023-06-14T06:41:13;8.45;;;5.63;;
30697;SDS011;17448;47.200;10.902;2023-06-14T06:43:39;7.97;;;5.15;;
30697;SDS011;17448;47.200;10.902;2023-06-14T06:46:08;9.43;;;5.13;;
30697;SDS011;17448;47.200;10.902;2023-06-14T06:48:34;9.70;;;6.05;;
30697;SDS011;17448;47.200;10.902;2023-06-14T06:51:00;8.98;;;5.68;;
30697;SDS011;17448;47.200;10.902;2023-06-14T06:53:26;8.13;;;5.45;;
30697;SDS011;17448;47.200;10.902;2023-06-14T06:55:53;7.63;;;5.35;;
30697;SDS011;17448;47.200;10.902;2023-06-14T06:58:19;7.93;;;5.32;;
30697;SDS011;17448;47.200;10.902;2023-06-14T07:00:47;8.85;;;5.45;;
30697;SDS011;17448;47.200;10.902;2023-06-14T07:03:13;8.23;;;5.35;;
30697;SDS011;17448;47.200;10.902;2023-06-14T07:05:39;8.63;;;5.63;;
30697;SDS011;17448;47.200;10.902;2023-06-14T07:08:06;7.25;;;5.18;;
30697;SDS011;17448;47.200;10.902;2023-06-14T07:10:33;8.82;;;4.82;;
30697;SDS011;17448;47.200;10.902;2023-06-14T07:12:59;7.68;;;5.35;;
30697;SDS011;17448;47.200;10.902;2023-06-14T07:15:26;6.38;;;4.45;;
30697;SDS011;17448;47.200;10.902;2023-06-14T07:17:52;8.55;;;5.07;;
30697;SDS011;17448;47.200;10.902;2023-06-14T07:20:18;10.48;;;4.93;;
30697;SDS011;17448;47.200;10.902;2023-06-14T07:22:47;7.60;;;4.82;;
30697;SDS011;17448;47.200;10.902;2023-06-14T07:25:14;8.00;;;4.78;;
30697;SDS011;17448;47.200;10.902;2023-06-14T07:27:40;7.75;;;5.47;;
30697;SDS011;17448;47.200;10.902;2023-06-14T07:30:07;7.85;;;5.15;;
30697;SDS011;17448;47.200;10.902;2023-06-14T07:32:33;8.55;;;5.28;;
30697;SDS011;17448;47.200;10.902;2023-06-14T07:35:00;8.55;;;5.35;;
30697;SDS011;17448;47.200;10.902;2023-06-14T07:37:26;8.45;;;4.85;;
30697;SDS011;17448;47.200;10.902;2023-06-14T07:39:52;10.35;;;5.25;;
30697;SDS011;17448;47.200;10.902;2023-06-14T07:42:18;9.32;;;5.38;;
30697;SDS011;17448;47.200;10.902;2023-06-14T07:44:45;7.53;;;5.28;;
30697;SDS011;17448;47.200;10.902;2023-06-14T07:47:11;6.13;;;4.75;;
30697;SDS011;17448;47.200;10.902;2023-06-14T07:49:37;6.95;;;4.80;;
30697;SDS011;17448;47.200;10.902;2023-06-14T07:52:04;8.38;;;5.07;;
30697;SDS011;17448;47.200;10.902;2023-06-14T07:54:30;9.63;;;5.22;;
30697;SDS011;17448;47.200;10.902;2023-06-14T07:56:57;5.65;;;4.57;;
30697;SDS011;17448;47.200;10.902;2023-06-14T07:59:26;8.05;;;4.50;;
30697;SDS011;17448;47.200;10.902;2023-06-14T08:01:55;9.85;;;5.38;;
30697;SDS011;17448;47.200;10.902;2023-06-14T08:04:22;7.63;;;4.70;;
30697;SDS011;17448;47.200;10.902;2023-06-14T08:06:50;8.35;;;4.93;;
30697;SDS011;17448;47.200;10.902;2023-06-14T08:09:17;6.22;;;4.80;;
30697;SDS011;17448;47.200;10.902;2023-06-14T08:11:43;8.82;;;5.03;;
30697;SDS011;17448;47.200;10.902;2023-06-14T08:14:10;7.43;;;4.47;;
30697;SDS011;17448;47.200;10.902;2023-06-14T08:16:36;10.05;;;4.45;;
30697;SDS011;17448;47.200;10.902;2023-06-14T08:19:03;8.10;;;5.35;;
30697;SDS011;17448;47.200;10.902;2023-06-14T08:21:29;6.75;;;4.53;;
30697;SDS011;17448;47.200;10.902;2023-06-14T08:23:58;8.20;;;5.00;;
30697;SDS011;17448;47.200;10.902;2023-06-14T08:26:25;14.18;;;5.85;;
30697;SDS011;17448;47.200;10.902;2023-06-14T08:28:55;6.63;;;5.20;;
30697;SDS011;17448;47.200;10.902;2023-06-14T08:31:22;9.00;;;4.80;;
30697;SDS011;17448;47.200;10.902;2023-06-14T08:33:49;10.05;;;4.70;;
30697;SDS011;17448;47.200;10.902;2023-06-14T08:36:18;5.93;;;4.13;;
30697;SDS011;17448;47.200;10.902;2023-06-14T08:38:44;8.15;;;5.10;;
30697;SDS011;17448;47.200;10.902;2023-06-14T08:41:11;7.30;;;4.85;;
30697;SDS011;17448;47.200;10.902;2023-06-14T08:43:44;7.07;;;4.30;;
30697;SDS011;17448;47.200;10.902;2023-06-14T08:46:10;10.05;;;4.63;;
30697;SDS011;17448;47.200;10.902;2023-06-14T08:48:41;9.63;;;4.65;;
30697;SDS011;17448;47.200;10.902;2023-06-14T08:51:08;8.07;;;4.93;;
30697;SDS011;17448;47.200;10.902;2023-06-14T08:53:36;9.27;;;4.22;;
30697;SDS011;17448;47.200;10.902;2023-06-14T08:56:07;6.55;;;4.72;;
30697;SDS011;17448;47.200;10.902;2023-06-14T08:58:42;8.05;;;4.75;;
30697;SDS011;17448;47.200;10.902;2023-06-14T09:01:10;7.18;;;4.10;;
30697;SDS011;17448;47.200;10.902;2023-06-14T09:03:42;6.55;;;4.40;;
30697;SDS011;17448;47.200;10.902;2023-06-14T09:06:11;7.18;;;4.63;;
30697;SDS011;17448;47.200;10.902;2023-06-14T09:08:44;9.80;;;4.90;;
30697;SDS011;17448;47.200;10.902;2023-06-14T09:11:11;6.55;;;4.55;;
30697;SDS011;17448;47.200;10.902;2023-06-14T09:13:38;8.18;;;4.50;;
30697;SDS011;17448;47.200;10.902;2023-06-14T09:16:06;6.13;;;4.47;;
30697;SDS011;17448;47.200;10.902;2023-06-14T09:18:36;8.73;;;4.80;;
30697;SDS011;17448;47.200;10.902;2023-06-14T09:21:02;9.07;;;4.50;;
30697;SDS011;17448;47.200;10.902;2023-06-14T09:23:32;7.13;;;4.78;;
30697;SDS011;17448;47.200;10.902;2023-06-14T09:25:59;7.13;;;4.38;;
30697;SDS011;17448;47.200;10.902;2023-06-14T09:28:28;7.88;;;4.57;;
30697;SDS011;17448;47.200;10.902;2023-06-14T09:30:54;6.93;;;4.72;;
30697;SDS011;17448;47.200;10.902;2023-06-14T09:33:21;8.25;;;4.55;;
30697;SDS011;17448;47.200;10.902;2023-06-14T09:35:50;6.70;;;4.28;;
30697;SDS011;17448;47.200;10.902;2023-06-14T09:38:17;7.05;;;4.43;;
30697;SDS011;17448;47.200;10.902;2023-06-14T09:40:46;9.30;;;4.63;;
30697;SDS011;17448;47.200;10.902;2023-06-14T09:43:12;7.85;;;4.68;;
30697;SDS011;17448;47.200;10.902;2023-06-14T09:45:39;7.75;;;4.40;;
30697;SDS011;17448;47.200;10.902;2023-06-14T09:48:06;7.35;;;4.55;;
30697;SDS011;17448;47.200;10.902;2023-06-14T09:50:36;8.68;;;4.63;;
30697;SDS011;17448;47.200;10.902;2023-06-14T09:53:03;8.45;;;4.63;;
30697;SDS011;17448;47.200;10.902;2023-06-14T09:55:30;5.85;;;4.40;;
30697;SDS011;17448;47.200;10.902;2023-06-14T09:57:56;6.03;;;4.07;;
30697;SDS011;17448;47.200;10.902;2023-06-14T10:00:25;7.57;;;4.57;;
30697;SDS011;17448;47.200;10.902;2023-06-14T10:02:53;7.55;;;4.10;;
30697;SDS011;17448;47.200;10.902;2023-06-14T10:05:21;10.38;;;4.80;;
30697;SDS011;17448;47.200;10.902;2023-06-14T10:07:56;6.18;;;4.53;;
30697;SDS011;17448;47.200;10.902;2023-06-14T10:10:25;5.50;;;4.25;;
30697;SDS011;17448;47.200;10.902;2023-06-14T10:12:52;10.50;;;4.18;;
30697;SDS011;17448;47.200;10.902;2023-06-14T10:15:20;7.00;;;4.45;;
30697;SDS011;17448;47.200;10.902;2023-06-14T10:17:48;10.45;;;4.80;;
30697;SDS011;17448;47.200;10.902;2023-06-14T10:20:37;7.75;;;4.32;;
30697;SDS011;17448;47.200;10.902;2023-06-14T10:23:16;7.57;;;4.18;;
30697;SDS011;17448;47.200;10.902;2023-06-14T10:25:49;8.13;;;4.53;;
30697;SDS011;17448;47.200;10.902;2023-06-14T10:28:22;5.38;;;4.32;;
30697;SDS011;17448;47.200;10.902;2023-06-14T10:31:06;7.13;;;4.63;;
30697;SDS011;17448;47.200;10.902;2023-06-14T10:33:33;5.35;;;4.22;;
30697;SDS011;17448;47.200;10.902;2023-06-14T10:36:06;7.60;;;5.05;;
30697;SDS011;17448;47.200;10.902;2023-06-14T10:38:33;12.95;;;4.25;;
30697;SDS011;17448;47.200;10.902;2023-06-14T10:41:02;6.22;;;4.30;;
30697;SDS011;17448;47.200;10.902;2023-06-14T10:43:28;11.05;;;4.55;;
30697;SDS011;17448;47.200;10.902;2023-06-14T10:46:12;5.95;;;4.20;;
30697;SDS011;17448;47.200;10.902;2023-06-14T10:48:42;7.28;;;4.20;;
30697;SDS011;17448;47.200;10.902;2023-06-14T10:51:16;6.60;;;4.30;;
30697;SDS011;17448;47.200;10.902;2023-06-14T10:53:49;7.95;;;4.45;;
30697;SDS011;17448;47.200;10.902;2023-06-14T10:56:23;6.00;;;4.28;;
30697;SDS011;17448;47.200;10.902;2023-06-14T10:58:50;7.60;;;4.57;;
30697;SDS011;17448;47.200;10.902;2023-06-14T11:01:19;6.70;;;3.88;;
30697;SDS011;17448;47.200;10.902;2023-06-14T11:03:52;4.80;;;3.70;;
30697;SDS011;17448;47.200;10.902;2023-06-14T11:06:21;5.78;;;4.13;;
30697;SDS011;17448;47.200;10.902;2023-06-14T11:08:56;5.70;;;3.78;;
30697;SDS011;17448;47.200;10.902;2023-06-14T11:11:33;5.47;;;3.90;;
30697;SDS011;17448;47.200;10.902;2023-06-14T11:14:07;6.30;;;3.90;;
30697;SDS011;17448;47.200;10.902;2023-06-14T11:19:00;4.40;;;3.42;;
30697;SDS011;17448;47.200;10.902;2023-06-14T11:21:34;6.38;;;4.05;;
30697;SDS011;17448;47.200;10.902;2023-06-14T11:24:09;4.15;;;3.65;;
30697;SDS011;17448;47.200;10.902;2023-06-14T11:26:39;4.70;;;3.70;;
30697;SDS011;17448;47.200;10.902;2023-06-14T11:29:11;5.83;;;3.83;;
30697;SDS011;17448;47.200;10.902;2023-06-14T11:31:44;4.68;;;3.92;;
30697;SDS011;17448;47.200;10.902;2023-06-14T11:34:12;7.10;;;4.00;;
30697;SDS011;17448;47.200;10.902;2023-06-14T11:36:39;4.97;;;3.83;;
30697;SDS011;17448;47.200;10.902;2023-06-14T11:39:07;6.80;;;4.22;;
30697;SDS011;17448;47.200;10.902;2023-06-14T11:41:37;5.60;;;3.55;;
30697;SDS011;17448;47.200;10.902;2023-06-14T11:44:04;7.30;;;3.83;;
30697;SDS011;17448;47.200;10.902;2023-06-14T11:46:33;5.75;;;3.83;;
30697;SDS011;17448;47.200;10.902;2023-06-14T11:49:01;7.82;;;4.53;;
30697;SDS011;17448;47.200;10.902;2023-06-14T11:51:35;6.15;;;3.40;;
30697;SDS011;17448;47.200;10.902;2023-06-14T11:54:02;6.28;;;3.72;;
30697;SDS011;17448;47.200;10.902;2023-06-14T11:56:29;4.68;;;4.18;;
30697;SDS011;17448;47.200;10.902;2023-06-14T11:58:57;5.15;;;3.65;;
30697;SDS011;17448;47.200;10.902;2023-06-14T12:01:23;7.97;;;4.13;;
30697;SDS011;17448;47.200;10.902;2023-06-14T12:03:51;5.55;;;4.00;;
30697;SDS011;17448;47.200;10.902;2023-06-14T12:06:29;5.55;;;3.70;;
30697;SDS011;17448;47.200;10.902;2023-06-14T12:08:58;4.50;;;3.63;;
30697;SDS011;17448;47.200;10.902;2023-06-14T12:11:33;5.10;;;3.75;;
30697;SDS011;17448;47.200;10.902;2023-06-14T12:14:00;4.50;;;3.30;;
30697;SDS011;17448;47.200;10.902;2023-06-14T12:19:17;4.50;;;3.33;;
30697;SDS011;17448;47.200;10.902;2023-06-14T12:21:56;9.13;;;3.92;;
30697;SDS011;17448;47.200;10.902;2023-06-14T12:24:29;6.97;;;3.70;;
30697;SDS011;17448;47.200;10.902;2023-06-14T12:26:59;7.35;;;3.75;;
30697;SDS011;17448;47.200;10.902;2023-06-14T12:29:31;6.93;;;3.75;;
30697;SDS011;17448;47.200;10.902;2023-06-14T12:31:57;5.65;;;3.67;;
30697;SDS011;17448;47.200;10.902;2023-06-14T12:34:29;3.70;;;3.40;;
30697;SDS011;17448;47.200;10.902;2023-06-14T12:36:56;4.63;;;3.95;;
30697;SDS011;17448;47.200;10.902;2023-06-14T12:39:23;4.10;;;3.70;;
30697;SDS011;17448;47.200;10.902;2023-06-14T12:41:50;4.28;;;3.47;;
30697;SDS011;17448;47.200;10.902;2023-06-14T12:44:17;6.80;;;3.83;;
30697;SDS011;17448;47.200;10.902;2023-06-14T12:46:43;5.85;;;3.30;;
30697;SDS011;17448;47.200;10.902;2023-06-14T12:49:10;7.55;;;3.72;;
30697;SDS011;17448;47.200;10.902;2023-06-14T12:51:37;4.35;;;3.60;;
30697;SDS011;17448;47.200;10.902;2023-06-14T12:54:04;4.30;;;3.45;;
30697;SDS011;17448;47.200;10.902;2023-06-14T12:56:31;5.18;;;3.63;;
30697;SDS011;17448;47.200;10.902;2023-06-14T13:01:24;5.55;;;3.85;;
30697;SDS011;17448;47.200;10.902;2023-06-14T13:04:23;6.38;;;3.83;;
30697;SDS011;17448;47.200;10.902;2023-06-14T13:06:50;5.38;;;3.58;;
30697;SDS011;17448;47.200;10.902;2023-06-14T13:09:16;7.13;;;3.80;;
30697;SDS011;17448;47.200;10.902;2023-06-14T13:11:49;5.03;;;3.67;;
30697;SDS011;17448;47.200;10.902;2023-06-14T13:19:37;7.82;;;3.95;;
30697;SDS011;17448;47.200;10.902;2023-06-14T13:22:04;4.95;;;3.65;;
30697;SDS011;17448;47.200;10.902;2023-06-14T13:24:35;4.78;;;4.18;;
30697;SDS011;17448;47.200;10.902;2023-06-14T13:27:02;9.00;;;3.88;;
30697;SDS011;17448;47.200;10.902;2023-06-14T13:29:30;5.15;;;3.55;;
30697;SDS011;17448;47.200;10.902;2023-06-14T13:31:58;6.65;;;3.85;;
30697;SDS011;17448;47.200;10.902;2023-06-14T13:34:26;4.65;;;3.47;;
30697;SDS011;17448;47.200;10.902;2023-06-14T13:36:52;6.35;;;3.67;;
30697;SDS011;17448;47.200;10.902;2023-06-14T13:39:20;7.60;;;3.63;;
30697;SDS011;17448;47.200;10.902;2023-06-14T13:41:47;5.10;;;3.85;;
30697;SDS011;17448;47.200;10.902;2023-06-14T13:44:14;6.07;;;3.72;;
30697;SDS011;17448;47.200;10.902;2023-06-14T13:46:44;5.63;;;4.00;;
30697;SDS011;17448;47.200;10.902;2023-06-14T13:49:10;6.03;;;3.90;;
30697;SDS011;17448;47.200;10.902;2023-06-14T13:51:37;5.03;;;3.72;;
30697;SDS011;17448;47.200;10.902;2023-06-14T13:54:03;6.63;;;3.75;;
30697;SDS011;17448;47.200;10.902;2023-06-14T13:56:30;10.10;;;4.20;;
30697;SDS011;17448;47.200;10.902;2023-06-14T13:58:58;6.93;;;3.92;;
30697;SDS011;17448;47.200;10.902;2023-06-14T14:01:25;7.32;;;4.15;;
30697;SDS011;17448;47.200;10.902;2023-06-14T14:03:53;5.35;;;3.55;;
30697;SDS011;17448;47.200;10.902;2023-06-14T14:06:20;4.03;;;3.42;;
30697;SDS011;17448;47.200;10.902;2023-06-14T14:08:46;6.38;;;3.67;;
30697;SDS011;17448;47.200;10.902;2023-06-14T14:11:12;4.63;;;4.07;;
30697;SDS011;17448;47.200;10.902;2023-06-14T14:13:39;5.00;;;3.90;;
30697;SDS011;17448;47.200;10.902;2023-06-14T14:16:05;5.63;;;3.95;;
30697;SDS011;17448;47.200;10.902;2023-06-14T14:18:31;5.63;;;4.22;;
30697;SDS011;17448;47.200;10.902;2023-06-14T14:20:58;5.40;;;4.07;;
30697;SDS011;17448;47.200;10.902;2023-06-14T14:23:25;4.65;;;3.70;;
30697;SDS011;17448;47.200;10.902;2023-06-14T14:25:52;5.00;;;3.85;;
30697;SDS011;17448;47.200;10.902;2023-06-14T14:28:18;5.75;;;4.00;;
30697;SDS011;17448;47.200;10.902;2023-06-14T14:30:46;8.63;;;4.35;;
30697;SDS011;17448;47.200;10.902;2023-06-14T14:33:13;4.97;;;3.85;;
30697;SDS011;17448;47.200;10.902;2023-06-14T14:35:42;4.88;;;4.03;;
30697;SDS011;17448;47.200;10.902;2023-06-14T14:38:08;5.18;;;3.90;;
30697;SDS011;17448;47.200;10.902;2023-06-14T14:40:35;4.95;;;3.88;;
30697;SDS011;17448;47.200;10.902;2023-06-14T14:43:01;6.95;;;4.25;;
30697;SDS011;17448;47.200;10.902;2023-06-14T14:45:27;5.35;;;3.67;;
30697;SDS011;17448;47.200;10.902;2023-06-14T14:47:53;6.43;;;3.75;;
30697;SDS011;17448;47.200;10.902;2023-06-14T14:50:20;7.50;;;3.60;;
30697;SDS011;17448;47.200;10.902;2023-06-14T14:52:46;5.25;;;3.85;;
30697;SDS011;17448;47.200;10.902;2023-06-14T14:55:12;9.48;;;4.07;;